sensor_id;sensor_type;location;lat;lon;timestamp;P1;durP1;ratioP1;P2;durP2;ratioP2
1360;SDS011;674;45.552;-122.600;2022-10-16T00:01:47;26.37;;;17.60;;
1360;SDS011;674;45.552;-122.600;2022-10-16T00:04:15;14.53;;;11.23;;
1360;SDS011;674;45.552;-122.600;2022-10-16T00:06:44;14.23;;;12.57;;
1360;SDS011;674;45.552;-122.600;2022-10-16T00:09:12;15.90;;;13.57;;
1360;SDS011;674;45.552;-122.600;2022-10-16T00:11:41;22.63;;;15.73;;
1360;SDS011;674;45.552;-122.600;2022-10-16T00:14:11;23.67;;;16.77;;
1360;SDS011;674;45.552;-122.600;2022-10-16T00:16:41;25.70;;;16.23;;
1360;SDS011;674;45.552;-122.600;2022-10-16T00:19:10;15.80;;;12.20;;
1360;SDS011;674;45.552;-122.600;2022-10-16T00:21:40;16.80;;;12.77;;
1360;SDS011;674;45.552;-122.600;2022-10-16T00:24:09;42.73;;;24.00;;
1360;SDS011;674;45.552;-122.600;2022-10-16T00:26:38;18.43;;;15.40;;
1360;SDS011;674;45.552;-122.600;2022-10-16T00:29:07;14.33;;;11.33;;
1360;SDS011;674;45.552;-122.600;2022-10-16T00:31:36;16.93;;;13.20;;
1360;SDS011;674;45.552;-122.600;2022-10-16T00:34:04;25.27;;;19.23;;
1360;SDS011;674;45.552;-122.600;2022-10-16T00:36:33;21.87;;;18.23;;
1360;SDS011;674;45.552;-122.600;2022-10-16T00:39:01;30.80;;;24.47;;
1360;SDS011;674;45.552;-122.600;2022-10-16T00:41:30;24.90;;;13.80;;
1360;SDS011;674;45.552;-122.600;2022-10-16T00:44:40;16.37;;;14.60;;
1360;SDS011;674;45.552;-122.600;2022-10-16T00:47:08;19.47;;;14.63;;
1360;SDS011;674;45.552;-122.600;2022-10-16T00:49:39;18.27;;;12.70;;
1360;SDS011;674;45.552;-122.600;2022-10-16T00:52:08;18.50;;;16.53;;
1360;SDS011;674;45.552;-122.600;2022-10-16T00:54:38;16.57;;;11.40;;
1360;SDS011;674;45.552;-122.600;2022-10-16T00:57:07;13.50;;;10.53;;
1360;SDS011;674;45.552;-122.600;2022-10-16T00:59:40;21.53;;;12.30;;
1360;SDS011;674;45.552;-122.600;2022-10-16T01:02:11;15.60;;;11.53;;
1360;SDS011;674;45.552;-122.600;2022-10-16T01:04:43;14.33;;;11.10;;
1360;SDS011;674;45.552;-122.600;2022-10-16T01:18:32;16.60;;;11.90;;
1360;SDS011;674;45.552;-122.600;2022-10-16T01:21:08;13.90;;;11.57;;
1360;SDS011;674;45.552;-122.600;2022-10-16T01:23:59;15.70;;;11.93;;
1360;SDS011;674;45.552;-122.600;2022-10-16T01:29:39;17.53;;;13.17;;
1360;SDS011;674;45.552;-122.600;2022-10-16T01:35:09;16.70;;;10.63;;
1360;SDS011;674;45.552;-122.600;2022-10-16T01:40:46;15.10;;;12.00;;
1360;SDS011;674;45.552;-122.600;2022-10-16T01:43:19;19.40;;;14.40;;
1360;SDS011;674;45.552;-122.600;2022-10-16T01:45:54;13.70;;;10.30;;
1360;SDS011;674;45.552;-122.600;2022-10-16T01:48:24;17.90;;;11.87;;
1360;SDS011;674;45.552;-122.600;2022-10-16T01:50:59;13.73;;;11.23;;
1360;SDS011;674;45.552;-122.600;2022-10-16T01:53:34;12.97;;;10.33;;
1360;SDS011;674;45.552;-122.600;2022-10-16T01:56:03;17.30;;;11.10;;
1360;SDS011;674;45.552;-122.600;2022-10-16T01:58:37;14.37;;;11.53;;
1360;SDS011;674;45.552;-122.600;2022-10-16T02:01:13;14.97;;;11.63;;
1360;SDS011;674;45.552;-122.600;2022-10-16T02:03:46;19.97;;;14.83;;
1360;SDS011;674;45.552;-122.600;2022-10-16T02:06:18;15.90;;;10.80;;
1360;SDS011;674;45.552;-122.600;2022-10-16T02:08:47;16.00;;;10.57;;
1360;SDS011;674;45.552;-122.600;2022-10-16T02:11:16;12.20;;;10.70;;
1360;SDS011;674;45.552;-122.600;2022-10-16T02:13:48;13.67;;;11.67;;
1360;SDS011;674;45.552;-122.600;2022-10-16T02:16:23;12.60;;;11.30;;
1360;SDS011;674;45.552;-122.600;2022-10-16T02:18:59;22.43;;;12.27;;
1360;SDS011;674;45.552;-122.600;2022-10-16T02:21:29;14.50;;;10.50;;
1360;SDS011;674;45.552;-122.600;2022-10-16T02:24:06;23.47;;;16.10;;
1360;SDS011;674;45.552;-122.600;2022-10-16T02:26:43;13.13;;;9.70;;
1360;SDS011;674;45.552;-122.600;2022-10-16T02:29:21;13.67;;;10.00;;
1360;SDS011;674;45.552;-122.600;2022-10-16T02:31:58;20.33;;;11.63;;
1360;SDS011;674;45.552;-122.600;2022-10-16T02:34:29;19.40;;;10.80;;
1360;SDS011;674;45.552;-122.600;2022-10-16T02:37:00;18.03;;;12.90;;
1360;SDS011;674;45.552;-122.600;2022-10-16T02:39:31;18.60;;;13.87;;
1360;SDS011;674;45.552;-122.600;2022-10-16T02:42:00;12.50;;;10.60;;
1360;SDS011;674;45.552;-122.600;2022-10-16T02:44:29;23.63;;;14.00;;
1360;SDS011;674;45.552;-122.600;2022-10-16T02:46:57;13.83;;;10.47;;
1360;SDS011;674;45.552;-122.600;2022-10-16T02:49:26;16.27;;;11.43;;
1360;SDS011;674;45.552;-122.600;2022-10-16T02:51:54;11.53;;;10.33;;
1360;SDS011;674;45.552;-122.600;2022-10-16T02:54:23;14.67;;;11.20;;
1360;SDS011;674;45.552;-122.600;2022-10-16T02:56:51;14.97;;;11.27;;
1360;SDS011;674;45.552;-122.600;2022-10-16T02:59:19;15.63;;;12.17;;
1360;SDS011;674;45.552;-122.600;2022-10-16T03:01:48;17.50;;;11.23;;
1360;SDS011;674;45.552;-122.600;2022-10-16T03:04:17;17.57;;;10.70;;
1360;SDS011;674;45.552;-122.600;2022-10-16T03:06:45;13.00;;;10.53;;
1360;SDS011;674;45.552;-122.600;2022-10-16T03:09:14;11.90;;;10.13;;
1360;SDS011;674;45.552;-122.600;2022-10-16T03:11:42;14.53;;;10.63;;
1360;SDS011;674;45.552;-122.600;2022-10-16T03:14:11;14.63;;;10.30;;
1360;SDS011;674;45.552;-122.600;2022-10-16T03:16:39;17.00;;;10.60;;
1360;SDS011;674;45.552;-122.600;2022-10-16T03:19:08;13.97;;;11.20;;
1360;SDS011;674;45.552;-122.600;2022-10-16T03:21:36;13.20;;;10.40;;
1360;SDS011;674;45.552;-122.600;2022-10-16T03:24:05;15.00;;;10.37;;
1360;SDS011;674;45.552;-122.600;2022-10-16T03:26:33;33.73;;;21.20;;
1360;SDS011;674;45.552;-122.600;2022-10-16T03:29:02;14.80;;;11.57;;
1360;SDS011;674;45.552;-122.600;2022-10-16T03:31:30;19.40;;;16.93;;
1360;SDS011;674;45.552;-122.600;2022-10-16T03:33:59;16.67;;;10.60;;
1360;SDS011;674;45.552;-122.600;2022-10-16T03:36:27;12.13;;;10.83;;
1360;SDS011;674;45.552;-122.600;2022-10-16T03:38:56;20.40;;;11.60;;
1360;SDS011;674;45.552;-122.600;2022-10-16T03:41:25;38.37;;;20.27;;
1360;SDS011;674;45.552;-122.600;2022-10-16T03:43:53;11.67;;;9.93;;
1360;SDS011;674;45.552;-122.600;2022-10-16T03:46:22;15.60;;;11.57;;
1360;SDS011;674;45.552;-122.600;2022-10-16T03:48:50;16.13;;;9.67;;
1360;SDS011;674;45.552;-122.600;2022-10-16T03:51:18;12.57;;;9.80;;
1360;SDS011;674;45.552;-122.600;2022-10-16T03:53:47;18.30;;;10.90;;
1360;SDS011;674;45.552;-122.600;2022-10-16T03:56:15;11.70;;;9.87;;
1360;SDS011;674;45.552;-122.600;2022-10-16T03:58:44;10.90;;;9.80;;
1360;SDS011;674;45.552;-122.600;2022-10-16T04:01:12;16.90;;;10.47;;
1360;SDS011;674;45.552;-122.600;2022-10-16T04:03:41;12.90;;;9.87;;
1360;SDS011;674;45.552;-122.600;2022-10-16T04:06:09;16.50;;;11.20;;
1360;SDS011;674;45.552;-122.600;2022-10-16T04:08:38;13.60;;;10.20;;
1360;SDS011;674;45.552;-122.600;2022-10-16T04:11:06;12.07;;;10.40;;
1360;SDS011;674;45.552;-122.600;2022-10-16T04:13:35;13.00;;;10.80;;
1360;SDS011;674;45.552;-122.600;2022-10-16T04:16:03;15.30;;;10.67;;
1360;SDS011;674;45.552;-122.600;2022-10-16T04:18:32;15.03;;;11.70;;
1360;SDS011;674;45.552;-122.600;2022-10-16T04:21:04;16.00;;;11.60;;
1360;SDS011;674;45.552;-122.600;2022-10-16T04:23:33;14.00;;;11.43;;
1360;SDS011;674;45.552;-122.600;2022-10-16T04:26:02;14.17;;;11.37;;
1360;SDS011;674;45.552;-122.600;2022-10-16T04:28:30;20.77;;;11.87;;
1360;SDS011;674;45.552;-122.600;2022-10-16T04:30:59;16.77;;;11.93;;
1360;SDS011;674;45.552;-122.600;2022-10-16T04:33:30;15.87;;;12.80;;
1360;SDS011;674;45.552;-122.600;2022-10-16T04:35:59;15.00;;;11.40;;
1360;SDS011;674;45.552;-122.600;2022-10-16T04:38:29;13.43;;;10.93;;
1360;SDS011;674;45.552;-122.600;2022-10-16T04:40:57;15.30;;;10.57;;
1360;SDS011;674;45.552;-122.600;2022-10-16T04:43:26;13.50;;;10.40;;
1360;SDS011;674;45.552;-122.600;2022-10-16T04:45:55;12.57;;;11.20;;
1360;SDS011;674;45.552;-122.600;2022-10-16T04:48:23;11.93;;;10.13;;
1360;SDS011;674;45.552;-122.600;2022-10-16T04:50:52;13.87;;;11.00;;
1360;SDS011;674;45.552;-122.600;2022-10-16T04:53:20;16.30;;;11.90;;
1360;SDS011;674;45.552;-122.600;2022-10-16T04:55:49;15.27;;;10.70;;
1360;SDS011;674;45.552;-122.600;2022-10-16T04:58:18;12.07;;;10.70;;
1360;SDS011;674;45.552;-122.600;2022-10-16T05:00:46;15.83;;;11.27;;
1360;SDS011;674;45.552;-122.600;2022-10-16T05:03:15;14.53;;;10.87;;
1360;SDS011;674;45.552;-122.600;2022-10-16T05:05:44;13.00;;;9.57;;
1360;SDS011;674;45.552;-122.600;2022-10-16T05:08:14;15.20;;;10.60;;
1360;SDS011;674;45.552;-122.600;2022-10-16T05:10:43;12.13;;;9.57;;
1360;SDS011;674;45.552;-122.600;2022-10-16T05:13:12;12.90;;;10.10;;
1360;SDS011;674;45.552;-122.600;2022-10-16T05:15:40;13.67;;;9.77;;
1360;SDS011;674;45.552;-122.600;2022-10-16T05:18:08;13.00;;;9.70;;
1360;SDS011;674;45.552;-122.600;2022-10-16T05:20:37;21.53;;;12.00;;
1360;SDS011;674;45.552;-122.600;2022-10-16T05:23:05;19.20;;;12.43;;
1360;SDS011;674;45.552;-122.600;2022-10-16T05:25:34;13.47;;;10.03;;
1360;SDS011;674;45.552;-122.600;2022-10-16T05:28:02;19.97;;;13.57;;
1360;SDS011;674;45.552;-122.600;2022-10-16T05:30:31;17.60;;;12.57;;
1360;SDS011;674;45.552;-122.600;2022-10-16T05:33:00;20.07;;;10.30;;
1360;SDS011;674;45.552;-122.600;2022-10-16T05:35:28;11.50;;;9.30;;
1360;SDS011;674;45.552;-122.600;2022-10-16T05:37:56;12.10;;;9.77;;
1360;SDS011;674;45.552;-122.600;2022-10-16T05:40:25;10.87;;;9.77;;
1360;SDS011;674;45.552;-122.600;2022-10-16T05:42:56;11.97;;;10.70;;
1360;SDS011;674;45.552;-122.600;2022-10-16T05:45:25;14.57;;;10.13;;
1360;SDS011;674;45.552;-122.600;2022-10-16T05:47:53;12.80;;;9.37;;
1360;SDS011;674;45.552;-122.600;2022-10-16T05:50:22;14.37;;;9.70;;
1360;SDS011;674;45.552;-122.600;2022-10-16T05:52:51;11.10;;;9.07;;
1360;SDS011;674;45.552;-122.600;2022-10-16T05:55:19;10.90;;;9.53;;
1360;SDS011;674;45.552;-122.600;2022-10-16T05:57:47;12.77;;;8.77;;
1360;SDS011;674;45.552;-122.600;2022-10-16T06:00:16;14.30;;;10.13;;
1360;SDS011;674;45.552;-122.600;2022-10-16T06:02:44;15.27;;;10.43;;
1360;SDS011;674;45.552;-122.600;2022-10-16T06:05:13;17.43;;;14.37;;
1360;SDS011;674;45.552;-122.600;2022-10-16T06:07:41;13.13;;;10.27;;
1360;SDS011;674;45.552;-122.600;2022-10-16T06:10:10;13.90;;;9.70;;
1360;SDS011;674;45.552;-122.600;2022-10-16T06:12:38;14.67;;;8.97;;
1360;SDS011;674;45.552;-122.600;2022-10-16T06:15:07;16.23;;;10.70;;
1360;SDS011;674;45.552;-122.600;2022-10-16T06:17:35;10.87;;;9.30;;
1360;SDS011;674;45.552;-122.600;2022-10-16T06:20:04;10.80;;;9.17;;
1360;SDS011;674;45.552;-122.600;2022-10-16T06:22:33;11.13;;;9.53;;
1360;SDS011;674;45.552;-122.600;2022-10-16T06:25:01;12.00;;;9.60;;
1360;SDS011;674;45.552;-122.600;2022-10-16T06:27:30;12.53;;;10.10;;
1360;SDS011;674;45.552;-122.600;2022-10-16T06:29:58;14.27;;;9.23;;
1360;SDS011;674;45.552;-122.600;2022-10-16T06:32:27;14.13;;;9.70;;
1360;SDS011;674;45.552;-122.600;2022-10-16T06:34:55;14.43;;;9.27;;
1360;SDS011;674;45.552;-122.600;2022-10-16T06:37:24;15.40;;;10.40;;
1360;SDS011;674;45.552;-122.600;2022-10-16T06:39:53;15.10;;;10.17;;
1360;SDS011;674;45.552;-122.600;2022-10-16T06:42:21;17.10;;;10.50;;
1360;SDS011;674;45.552;-122.600;2022-10-16T06:44:50;12.73;;;8.97;;
1360;SDS011;674;45.552;-122.600;2022-10-16T06:47:19;15.17;;;9.80;;
1360;SDS011;674;45.552;-122.600;2022-10-16T06:49:47;12.13;;;8.80;;
1360;SDS011;674;45.552;-122.600;2022-10-16T06:52:19;13.67;;;9.07;;
1360;SDS011;674;45.552;-122.600;2022-10-16T06:54:49;11.53;;;9.10;;
1360;SDS011;674;45.552;-122.600;2022-10-16T06:57:17;10.00;;;8.80;;
1360;SDS011;674;45.552;-122.600;2022-10-16T06:59:46;13.23;;;8.47;;
1360;SDS011;674;45.552;-122.600;2022-10-16T07:02:20;14.23;;;8.93;;
1360;SDS011;674;45.552;-122.600;2022-10-16T07:04:50;13.77;;;9.43;;
1360;SDS011;674;45.552;-122.600;2022-10-16T07:07:18;12.67;;;8.97;;
1360;SDS011;674;45.552;-122.600;2022-10-16T07:09:46;10.60;;;8.53;;
1360;SDS011;674;45.552;-122.600;2022-10-16T07:12:15;13.03;;;8.80;;
1360;SDS011;674;45.552;-122.600;2022-10-16T07:14:43;11.97;;;9.67;;
1360;SDS011;674;45.552;-122.600;2022-10-16T07:17:12;12.60;;;8.70;;
1360;SDS011;674;45.552;-122.600;2022-10-16T07:19:41;12.87;;;8.73;;
1360;SDS011;674;45.552;-122.600;2022-10-16T07:22:09;12.03;;;9.50;;
1360;SDS011;674;45.552;-122.600;2022-10-16T07:24:38;12.00;;;8.80;;
1360;SDS011;674;45.552;-122.600;2022-10-16T07:27:06;10.93;;;8.87;;
1360;SDS011;674;45.552;-122.600;2022-10-16T07:29:35;11.13;;;9.57;;
1360;SDS011;674;45.552;-122.600;2022-10-16T07:32:03;16.37;;;9.40;;
1360;SDS011;674;45.552;-122.600;2022-10-16T07:34:32;12.27;;;8.70;;
1360;SDS011;674;45.552;-122.600;2022-10-16T07:37:00;11.90;;;9.17;;
1360;SDS011;674;45.552;-122.600;2022-10-16T07:39:29;17.27;;;11.83;;
1360;SDS011;674;45.552;-122.600;2022-10-16T07:41:57;17.00;;;10.67;;
1360;SDS011;674;45.552;-122.600;2022-10-16T07:44:26;14.53;;;9.00;;
1360;SDS011;674;45.552;-122.600;2022-10-16T07:46:54;11.30;;;8.90;;
1360;SDS011;674;45.552;-122.600;2022-10-16T07:49:22;11.40;;;9.03;;
1360;SDS011;674;45.552;-122.600;2022-10-16T07:51:51;15.40;;;9.10;;
1360;SDS011;674;45.552;-122.600;2022-10-16T07:54:19;14.63;;;9.77;;
1360;SDS011;674;45.552;-122.600;2022-10-16T07:56:48;10.60;;;8.97;;
1360;SDS011;674;45.552;-122.600;2022-10-16T07:59:16;10.77;;;9.30;;
1360;SDS011;674;45.552;-122.600;2022-10-16T08:01:44;10.57;;;8.80;;
1360;SDS011;674;45.552;-122.600;2022-10-16T08:04:13;14.70;;;9.40;;
1360;SDS011;674;45.552;-122.600;2022-10-16T08:06:41;10.47;;;9.13;;
1360;SDS011;674;45.552;-122.600;2022-10-16T08:09:10;14.23;;;9.37;;
1360;SDS011;674;45.552;-122.600;2022-10-16T08:11:38;12.17;;;9.27;;
1360;SDS011;674;45.552;-122.600;2022-10-16T08:14:07;12.03;;;9.10;;
1360;SDS011;674;45.552;-122.600;2022-10-16T08:16:35;13.87;;;9.30;;
1360;SDS011;674;45.552;-122.600;2022-10-16T08:19:03;10.33;;;8.63;;
1360;SDS011;674;45.552;-122.600;2022-10-16T08:21:32;11.40;;;9.10;;
1360;SDS011;674;45.552;-122.600;2022-10-16T08:24:00;14.00;;;9.80;;
1360;SDS011;674;45.552;-122.600;2022-10-16T08:26:29;13.70;;;8.27;;
1360;SDS011;674;45.552;-122.600;2022-10-16T08:28:57;12.40;;;8.90;;
1360;SDS011;674;45.552;-122.600;2022-10-16T08:31:26;13.77;;;10.43;;
1360;SDS011;674;45.552;-122.600;2022-10-16T08:33:54;16.23;;;9.37;;
1360;SDS011;674;45.552;-122.600;2022-10-16T08:36:23;12.90;;;9.43;;
1360;SDS011;674;45.552;-122.600;2022-10-16T08:38:51;17.27;;;10.13;;
1360;SDS011;674;45.552;-122.600;2022-10-16T08:49:42;17.40;;;9.37;;
1360;SDS011;674;45.552;-122.600;2022-10-16T08:52:19;10.13;;;8.83;;
1360;SDS011;674;45.552;-122.600;2022-10-16T08:54:48;11.40;;;10.07;;
1360;SDS011;674;45.552;-122.600;2022-10-16T08:57:22;13.33;;;9.20;;
1360;SDS011;674;45.552;-122.600;2022-10-16T08:59:53;10.50;;;9.17;;
1360;SDS011;674;45.552;-122.600;2022-10-16T09:05:20;13.73;;;9.17;;
1360;SDS011;674;45.552;-122.600;2022-10-16T09:13:35;10.27;;;9.17;;
1360;SDS011;674;45.552;-122.600;2022-10-16T09:18:58;11.70;;;9.37;;
1360;SDS011;674;45.552;-122.600;2022-10-16T09:21:37;17.27;;;9.20;;
1360;SDS011;674;45.552;-122.600;2022-10-16T09:24:16;10.73;;;9.43;;
1360;SDS011;674;45.552;-122.600;2022-10-16T09:26:48;10.97;;;9.47;;
1360;SDS011;674;45.552;-122.600;2022-10-16T09:29:17;14.60;;;9.80;;
1360;SDS011;674;45.552;-122.600;2022-10-16T09:31:48;11.13;;;9.20;;
1360;SDS011;674;45.552;-122.600;2022-10-16T09:34:27;15.40;;;9.43;;
1360;SDS011;674;45.552;-122.600;2022-10-16T09:37:00;14.77;;;9.90;;
1360;SDS011;674;45.552;-122.600;2022-10-16T09:39:43;12.70;;;8.77;;
1360;SDS011;674;45.552;-122.600;2022-10-16T09:42:17;11.00;;;8.40;;
1360;SDS011;674;45.552;-122.600;2022-10-16T09:44:51;11.40;;;9.27;;
1360;SDS011;674;45.552;-122.600;2022-10-16T09:47:21;13.00;;;9.63;;
1360;SDS011;674;45.552;-122.600;2022-10-16T09:49:56;20.43;;;9.90;;
1360;SDS011;674;45.552;-122.600;2022-10-16T09:52:31;13.77;;;8.70;;
1360;SDS011;674;45.552;-122.600;2022-10-16T09:55:02;12.50;;;9.30;;
1360;SDS011;674;45.552;-122.600;2022-10-16T09:57:53;15.23;;;7.83;;
1360;SDS011;674;45.552;-122.600;2022-10-16T10:00:22;10.20;;;8.80;;
1360;SDS011;674;45.552;-122.600;2022-10-16T10:02:51;12.40;;;8.90;;
1360;SDS011;674;45.552;-122.600;2022-10-16T10:05:25;15.03;;;9.07;;
1360;SDS011;674;45.552;-122.600;2022-10-16T10:07:56;11.40;;;8.77;;
1360;SDS011;674;45.552;-122.600;2022-10-16T10:10:42;11.83;;;9.07;;
1360;SDS011;674;45.552;-122.600;2022-10-16T10:13:22;13.93;;;10.07;;
1360;SDS011;674;45.552;-122.600;2022-10-16T10:15:54;11.90;;;9.00;;
1360;SDS011;674;45.552;-122.600;2022-10-16T10:18:22;12.60;;;9.00;;
1360;SDS011;674;45.552;-122.600;2022-10-16T10:21:02;14.50;;;9.57;;
1360;SDS011;674;45.552;-122.600;2022-10-16T10:23:33;10.50;;;8.23;;
1360;SDS011;674;45.552;-122.600;2022-10-16T10:26:35;13.40;;;9.60;;
1360;SDS011;674;45.552;-122.600;2022-10-16T10:29:10;10.77;;;7.90;;
1360;SDS011;674;45.552;-122.600;2022-10-16T10:32:01;15.17;;;8.93;;
1360;SDS011;674;45.552;-122.600;2022-10-16T10:43:27;10.27;;;8.70;;
1360;SDS011;674;45.552;-122.600;2022-10-16T10:46:14;12.87;;;9.07;;
1360;SDS011;674;45.552;-122.600;2022-10-16T10:52:05;15.97;;;9.13;;
1360;SDS011;674;45.552;-122.600;2022-10-16T10:57:30;11.93;;;8.83;;
1360;SDS011;674;45.552;-122.600;2022-10-16T11:00:17;11.43;;;9.13;;
1360;SDS011;674;45.552;-122.600;2022-10-16T11:05:31;13.20;;;9.83;;
1360;SDS011;674;45.552;-122.600;2022-10-16T11:08:12;11.30;;;9.33;;
1360;SDS011;674;45.552;-122.600;2022-10-16T11:10:53;14.97;;;8.60;;
1360;SDS011;674;45.552;-122.600;2022-10-16T11:16:13;13.60;;;8.73;;
1360;SDS011;674;45.552;-122.600;2022-10-16T11:18:53;10.80;;;8.10;;
1360;SDS011;674;45.552;-122.600;2022-10-16T11:21:46;13.93;;;9.17;;
1360;SDS011;674;45.552;-122.600;2022-10-16T11:24:42;12.23;;;8.80;;
1360;SDS011;674;45.552;-122.600;2022-10-16T11:27:20;12.97;;;8.83;;
1360;SDS011;674;45.552;-122.600;2022-10-16T11:30:05;10.30;;;8.33;;
1360;SDS011;674;45.552;-122.600;2022-10-16T11:38:51;14.40;;;8.67;;
1360;SDS011;674;45.552;-122.600;2022-10-16T11:41:49;11.83;;;9.50;;
1360;SDS011;674;45.552;-122.600;2022-10-16T11:44:32;14.80;;;8.37;;
1360;SDS011;674;45.552;-122.600;2022-10-16T11:50:20;10.93;;;8.60;;
1360;SDS011;674;45.552;-122.600;2022-10-16T11:53:03;10.43;;;9.10;;
1360;SDS011;674;45.552;-122.600;2022-10-16T11:55:39;10.50;;;8.47;;
1360;SDS011;674;45.552;-122.600;2022-10-16T12:09:13;12.87;;;8.97;;
1360;SDS011;674;45.552;-122.600;2022-10-16T12:11:49;11.57;;;9.27;;
1360;SDS011;674;45.552;-122.600;2022-10-16T12:14:19;10.37;;;8.47;;
1360;SDS011;674;45.552;-122.600;2022-10-16T12:16:52;13.80;;;8.93;;
1360;SDS011;674;45.552;-122.600;2022-10-16T12:19:23;14.63;;;9.00;;
1360;SDS011;674;45.552;-122.600;2022-10-16T12:21:58;16.90;;;9.10;;
1360;SDS011;674;45.552;-122.600;2022-10-16T12:24:32;13.43;;;8.87;;
1360;SDS011;674;45.552;-122.600;2022-10-16T12:27:26;10.90;;;8.43;;
1360;SDS011;674;45.552;-122.600;2022-10-16T12:30:01;15.90;;;9.30;;
1360;SDS011;674;45.552;-122.600;2022-10-16T12:32:36;14.50;;;8.80;;
1360;SDS011;674;45.552;-122.600;2022-10-16T12:35:22;11.23;;;9.10;;
1360;SDS011;674;45.552;-122.600;2022-10-16T12:37:54;11.07;;;7.67;;
1360;SDS011;674;45.552;-122.600;2022-10-16T12:40:32;10.97;;;9.80;;
1360;SDS011;674;45.552;-122.600;2022-10-16T12:48:40;11.10;;;8.97;;
1360;SDS011;674;45.552;-122.600;2022-10-16T12:53:58;10.60;;;8.10;;
1360;SDS011;674;45.552;-122.600;2022-10-16T13:02:04;11.07;;;8.60;;
1360;SDS011;674;45.552;-122.600;2022-10-16T13:07:44;15.20;;;9.10;;
1360;SDS011;674;45.552;-122.600;2022-10-16T13:10:34;14.70;;;9.10;;
1360;SDS011;674;45.552;-122.600;2022-10-16T13:13:23;12.50;;;8.80;;
1360;SDS011;674;45.552;-122.600;2022-10-16T13:21:35;12.23;;;8.57;;
1360;SDS011;674;45.552;-122.600;2022-10-16T13:30:17;13.57;;;9.17;;
1360;SDS011;674;45.552;-122.600;2022-10-16T13:33:02;13.53;;;9.43;;
1360;SDS011;674;45.552;-122.600;2022-10-16T13:35:47;12.53;;;8.80;;
1360;SDS011;674;45.552;-122.600;2022-10-16T13:38:26;11.90;;;9.47;;
1360;SDS011;674;45.552;-122.600;2022-10-16T13:41:01;14.00;;;8.27;;
1360;SDS011;674;45.552;-122.600;2022-10-16T13:46:06;12.93;;;8.57;;
1360;SDS011;674;45.552;-122.600;2022-10-16T13:48:40;10.77;;;8.33;;
1360;SDS011;674;45.552;-122.600;2022-10-16T13:51:15;16.07;;;8.30;;
1360;SDS011;674;45.552;-122.600;2022-10-16T13:53:45;12.57;;;8.90;;
1360;SDS011;674;45.552;-122.600;2022-10-16T13:56:15;10.00;;;8.63;;
1360;SDS011;674;45.552;-122.600;2022-10-16T13:58:45;10.87;;;8.43;;
1360;SDS011;674;45.552;-122.600;2022-10-16T14:03:47;15.23;;;9.73;;
1360;SDS011;674;45.552;-122.600;2022-10-16T14:06:17;13.40;;;8.40;;
1360;SDS011;674;45.552;-122.600;2022-10-16T14:08:55;10.87;;;8.13;;
1360;SDS011;674;45.552;-122.600;2022-10-16T14:11:25;16.50;;;8.87;;
1360;SDS011;674;45.552;-122.600;2022-10-16T14:13:53;13.43;;;9.20;;
1360;SDS011;674;45.552;-122.600;2022-10-16T14:16:23;10.23;;;8.00;;
1360;SDS011;674;45.552;-122.600;2022-10-16T14:18:56;20.13;;;9.17;;
1360;SDS011;674;45.552;-122.600;2022-10-16T14:21:29;9.60;;;7.90;;
1360;SDS011;674;45.552;-122.600;2022-10-16T14:23:59;13.80;;;8.50;;
1360;SDS011;674;45.552;-122.600;2022-10-16T14:26:50;19.30;;;8.80;;
1360;SDS011;674;45.552;-122.600;2022-10-16T14:29:18;16.03;;;8.80;;
1360;SDS011;674;45.552;-122.600;2022-10-16T14:34:54;13.63;;;8.90;;
1360;SDS011;674;45.552;-122.600;2022-10-16T14:37:24;16.57;;;9.20;;
1360;SDS011;674;45.552;-122.600;2022-10-16T14:39:56;14.20;;;8.10;;
1360;SDS011;674;45.552;-122.600;2022-10-16T14:42:25;14.03;;;8.53;;
1360;SDS011;674;45.552;-122.600;2022-10-16T14:44:54;11.20;;;8.87;;
1360;SDS011;674;45.552;-122.600;2022-10-16T14:47:24;13.83;;;8.87;;
1360;SDS011;674;45.552;-122.600;2022-10-16T14:49:54;17.90;;;8.87;;
1360;SDS011;674;45.552;-122.600;2022-10-16T14:52:25;12.50;;;8.00;;
1360;SDS011;674;45.552;-122.600;2022-10-16T14:54:54;16.77;;;9.13;;
1360;SDS011;674;45.552;-122.600;2022-10-16T14:57:24;12.40;;;8.60;;
1360;SDS011;674;45.552;-122.600;2022-10-16T14:59:55;9.43;;;8.43;;
1360;SDS011;674;45.552;-122.600;2022-10-16T15:02:28;17.13;;;9.30;;
1360;SDS011;674;45.552;-122.600;2022-10-16T15:04:59;10.23;;;8.27;;
1360;SDS011;674;45.552;-122.600;2022-10-16T15:07:50;10.93;;;8.53;;
1360;SDS011;674;45.552;-122.600;2022-10-16T15:10:23;10.77;;;8.40;;
1360;SDS011;674;45.552;-122.600;2022-10-16T15:12:54;13.70;;;9.20;;
1360;SDS011;674;45.552;-122.600;2022-10-16T15:17:55;14.90;;;8.70;;
1360;SDS011;674;45.552;-122.600;2022-10-16T15:20:25;11.10;;;9.20;;
1360;SDS011;674;45.552;-122.600;2022-10-16T15:23:02;14.30;;;8.50;;
1360;SDS011;674;45.552;-122.600;2022-10-16T15:28:01;11.30;;;8.97;;
1360;SDS011;674;45.552;-122.600;2022-10-16T15:30:30;14.10;;;8.90;;
1360;SDS011;674;45.552;-122.600;2022-10-16T15:32:59;15.07;;;8.93;;
1360;SDS011;674;45.552;-122.600;2022-10-16T15:35:28;16.33;;;9.00;;
1360;SDS011;674;45.552;-122.600;2022-10-16T15:37:56;11.70;;;8.87;;
1360;SDS011;674;45.552;-122.600;2022-10-16T15:40:25;17.80;;;7.73;;
1360;SDS011;674;45.552;-122.600;2022-10-16T15:42:54;13.03;;;8.33;;
1360;SDS011;674;45.552;-122.600;2022-10-16T15:45:22;16.50;;;8.57;;
1360;SDS011;674;45.552;-122.600;2022-10-16T15:47:50;10.00;;;7.60;;
1360;SDS011;674;45.552;-122.600;2022-10-16T15:50:19;9.77;;;7.97;;
1360;SDS011;674;45.552;-122.600;2022-10-16T15:52:47;12.47;;;8.03;;
1360;SDS011;674;45.552;-122.600;2022-10-16T15:55:17;10.60;;;8.10;;
1360;SDS011;674;45.552;-122.600;2022-10-16T15:57:46;12.90;;;9.83;;
1360;SDS011;674;45.552;-122.600;2022-10-16T16:00:16;14.83;;;8.03;;
1360;SDS011;674;45.552;-122.600;2022-10-16T16:02:53;9.73;;;7.80;;
1360;SDS011;674;45.552;-122.600;2022-10-16T16:05:23;10.70;;;8.30;;
1360;SDS011;674;45.552;-122.600;2022-10-16T16:07:52;10.10;;;8.00;;
1360;SDS011;674;45.552;-122.600;2022-10-16T16:10:20;9.57;;;6.97;;
1360;SDS011;674;45.552;-122.600;2022-10-16T16:12:49;12.60;;;7.90;;
1360;SDS011;674;45.552;-122.600;2022-10-16T16:15:20;9.70;;;7.43;;
1360;SDS011;674;45.552;-122.600;2022-10-16T16:17:49;16.00;;;8.67;;
1360;SDS011;674;45.552;-122.600;2022-10-16T16:20:17;9.63;;;7.43;;
1360;SDS011;674;45.552;-122.600;2022-10-16T16:22:46;12.53;;;8.90;;
1360;SDS011;674;45.552;-122.600;2022-10-16T16:25:14;13.07;;;8.33;;
1360;SDS011;674;45.552;-122.600;2022-10-16T16:27:43;10.83;;;8.00;;
1360;SDS011;674;45.552;-122.600;2022-10-16T16:30:12;15.80;;;8.63;;
1360;SDS011;674;45.552;-122.600;2022-10-16T16:32:45;13.73;;;7.70;;
1360;SDS011;674;45.552;-122.600;2022-10-16T16:35:14;12.27;;;7.93;;
1360;SDS011;674;45.552;-122.600;2022-10-16T16:37:42;15.43;;;11.37;;
1360;SDS011;674;45.552;-122.600;2022-10-16T16:40:11;9.83;;;7.40;;
1360;SDS011;674;45.552;-122.600;2022-10-16T16:42:39;11.40;;;8.07;;
1360;SDS011;674;45.552;-122.600;2022-10-16T16:45:08;11.27;;;8.77;;
1360;SDS011;674;45.552;-122.600;2022-10-16T16:47:36;12.17;;;7.83;;
1360;SDS011;674;45.552;-122.600;2022-10-16T16:50:06;11.13;;;7.90;;
1360;SDS011;674;45.552;-122.600;2022-10-16T16:52:34;10.23;;;8.30;;
1360;SDS011;674;45.552;-122.600;2022-10-16T16:55:03;14.33;;;9.33;;
1360;SDS011;674;45.552;-122.600;2022-10-16T16:57:32;10.43;;;7.80;;
1360;SDS011;674;45.552;-122.600;2022-10-16T17:00:00;12.43;;;7.90;;